KBRD/BRD METAR and TAF weather

Enter ICAO airport designator
Station Type Date Time Source
KBRD METAR 2019/06/18 12:30 UTC NOAA

KBRD 181230Z AUTO 29004KT 10SM SCT009 BKN013 OVC065 16/12 A2999 RMK AO2 T01610117


Station Type Date Time Source
KBRD Decoded METAR 2019/06/18 12:30 UTC NOAA

BRAINERD-CROW WING CO AIRPORT , MN, United States (KBRD) 46-24N 94-08W 372M
Jun 18, 2019 - 08:30 AM EDT / 2019.06.18 1230 UTC
Wind: from the WNW (290 degrees) at 5 MPH (4 KT):0
Visibility: 10 mile(s):0
Sky conditions: overcast
Temperature: 61.0 F (16.1 C)
Dew Point: 53.1 F (11.7 C)
Relative Humidity: 75%
Pressure (altimeter): 29.99 in. Hg (1015 hPa)
ob: KBRD 181230Z AUTO 29004KT 10SM SCT009 BKN013 OVC065 16/12 A2999 RMK AO2 T01610117
cycle: 12

Station Type Date Time Source
KBRD TAF 2019/06/18 12:22 UTC NOAA

TAF KBRD 181120Z 1812/1912 VRB03KT P6SM BKN015
TEMPO 1812/1813 BKN008
FM181600 34006KT P6SM SCT015 BKN040
FM190200 VRB02KT P6SM SCT050 BKN100
FM190800 VRB02KT 6SM BR SCT100

Example: see airport list